sensor_id;sensor_type;location;lat;lon;timestamp;P1;durP1;ratioP1;P2;durP2;ratioP2
37483;SDS011;23337;52.212;9.926;2023-05-07T00:00:51;30.10;;;23.70;;
37483;SDS011;23337;52.212;9.926;2023-05-07T00:03:17;33.40;;;25.60;;
37483;SDS011;23337;52.212;9.926;2023-05-07T00:05:44;32.07;;;25.03;;
37483;SDS011;23337;52.212;9.926;2023-05-07T00:08:10;36.43;;;27.97;;
37483;SDS011;23337;52.212;9.926;2023-05-07T00:10:36;37.13;;;28.77;;
37483;SDS011;23337;52.212;9.926;2023-05-07T00:13:02;34.03;;;28.10;;
37483;SDS011;23337;52.212;9.926;2023-05-07T00:15:27;37.73;;;28.80;;
37483;SDS011;23337;52.212;9.926;2023-05-07T00:17:53;38.80;;;28.17;;
37483;SDS011;23337;52.212;9.926;2023-05-07T00:20:20;41.73;;;28.43;;
37483;SDS011;23337;52.212;9.926;2023-05-07T00:22:45;40.93;;;27.47;;
37483;SDS011;23337;52.212;9.926;2023-05-07T00:25:11;41.20;;;29.73;;
37483;SDS011;23337;52.212;9.926;2023-05-07T00:27:37;38.67;;;27.70;;
37483;SDS011;23337;52.212;9.926;2023-05-07T00:30:04;38.63;;;27.33;;
37483;SDS011;23337;52.212;9.926;2023-05-07T00:32:30;39.07;;;27.10;;
37483;SDS011;23337;52.212;9.926;2023-05-07T00:34:56;36.40;;;27.07;;
37483;SDS011;23337;52.212;9.926;2023-05-07T00:37:22;38.70;;;26.60;;
37483;SDS011;23337;52.212;9.926;2023-05-07T00:39:48;35.33;;;25.83;;
37483;SDS011;23337;52.212;9.926;2023-05-07T00:42:14;40.07;;;27.40;;
37483;SDS011;23337;52.212;9.926;2023-05-07T00:44:41;37.50;;;27.57;;
37483;SDS011;23337;52.212;9.926;2023-05-07T00:47:07;39.47;;;27.97;;
37483;SDS011;23337;52.212;9.926;2023-05-07T00:49:42;36.87;;;27.53;;
37483;SDS011;23337;52.212;9.926;2023-05-07T00:52:13;42.30;;;29.57;;
37483;SDS011;23337;52.212;9.926;2023-05-07T00:54:40;39.10;;;28.40;;
37483;SDS011;23337;52.212;9.926;2023-05-07T00:57:06;45.77;;;29.47;;
37483;SDS011;23337;52.212;9.926;2023-05-07T00:59:32;40.13;;;28.47;;
37483;SDS011;23337;52.212;9.926;2023-05-07T01:01:58;41.63;;;28.87;;
37483;SDS011;23337;52.212;9.926;2023-05-07T01:04:25;38.07;;;26.83;;
37483;SDS011;23337;52.212;9.926;2023-05-07T01:06:51;43.00;;;29.13;;
37483;SDS011;23337;52.212;9.926;2023-05-07T01:09:18;39.47;;;28.10;;
37483;SDS011;23337;52.212;9.926;2023-05-07T01:11:45;43.23;;;29.30;;
37483;SDS011;23337;52.212;9.926;2023-05-07T01:14:11;41.90;;;27.73;;
37483;SDS011;23337;52.212;9.926;2023-05-07T01:16:37;39.97;;;28.90;;
37483;SDS011;23337;52.212;9.926;2023-05-07T01:19:06;42.43;;;28.53;;
37483;SDS011;23337;52.212;9.926;2023-05-07T01:21:33;43.23;;;27.40;;
37483;SDS011;23337;52.212;9.926;2023-05-07T01:23:59;41.93;;;26.40;;
37483;SDS011;23337;52.212;9.926;2023-05-07T01:26:26;39.87;;;25.57;;
37483;SDS011;23337;52.212;9.926;2023-05-07T01:28:52;37.90;;;26.43;;
37483;SDS011;23337;52.212;9.926;2023-05-07T01:31:18;35.27;;;25.23;;
37483;SDS011;23337;52.212;9.926;2023-05-07T01:33:44;37.10;;;25.23;;
37483;SDS011;23337;52.212;9.926;2023-05-07T01:36:11;37.57;;;25.20;;
37483;SDS011;23337;52.212;9.926;2023-05-07T01:38:37;30.60;;;24.40;;
37483;SDS011;23337;52.212;9.926;2023-05-07T01:41:04;35.80;;;23.73;;
37483;SDS011;23337;52.212;9.926;2023-05-07T01:43:30;31.40;;;23.60;;
37483;SDS011;23337;52.212;9.926;2023-05-07T01:45:57;29.47;;;22.20;;
37483;SDS011;23337;52.212;9.926;2023-05-07T01:48:23;28.23;;;22.97;;
37483;SDS011;23337;52.212;9.926;2023-05-07T01:50:49;31.07;;;22.13;;
37483;SDS011;23337;52.212;9.926;2023-05-07T01:53:16;32.33;;;21.17;;
37483;SDS011;23337;52.212;9.926;2023-05-07T01:55:42;26.20;;;19.67;;
37483;SDS011;23337;52.212;9.926;2023-05-07T01:58:08;26.37;;;20.67;;
37483;SDS011;23337;52.212;9.926;2023-05-07T02:00:34;28.83;;;21.03;;
37483;SDS011;23337;52.212;9.926;2023-05-07T02:03:00;26.90;;;19.93;;
37483;SDS011;23337;52.212;9.926;2023-05-07T02:05:26;23.70;;;18.97;;
37483;SDS011;23337;52.212;9.926;2023-05-07T02:07:52;24.97;;;18.53;;
37483;SDS011;23337;52.212;9.926;2023-05-07T02:10:18;23.20;;;18.27;;
37483;SDS011;23337;52.212;9.926;2023-05-07T02:12:44;22.63;;;18.37;;
37483;SDS011;23337;52.212;9.926;2023-05-07T02:15:10;25.53;;;19.10;;
37483;SDS011;23337;52.212;9.926;2023-05-07T02:17:38;25.83;;;20.03;;
37483;SDS011;23337;52.212;9.926;2023-05-07T02:20:05;21.07;;;18.10;;
37483;SDS011;23337;52.212;9.926;2023-05-07T02:22:38;25.80;;;19.13;;
37483;SDS011;23337;52.212;9.926;2023-05-07T02:25:04;21.70;;;18.33;;
37483;SDS011;23337;52.212;9.926;2023-05-07T02:27:30;23.67;;;19.70;;
37483;SDS011;23337;52.212;9.926;2023-05-07T02:29:55;25.90;;;19.27;;
37483;SDS011;23337;52.212;9.926;2023-05-07T02:32:21;23.00;;;18.83;;
37483;SDS011;23337;52.212;9.926;2023-05-07T02:34:49;23.37;;;18.17;;
37483;SDS011;23337;52.212;9.926;2023-05-07T02:37:16;22.57;;;18.17;;
37483;SDS011;23337;52.212;9.926;2023-05-07T02:39:42;18.93;;;16.93;;
37483;SDS011;23337;52.212;9.926;2023-05-07T02:42:08;21.60;;;17.17;;
37483;SDS011;23337;52.212;9.926;2023-05-07T02:44:34;18.63;;;15.73;;
37483;SDS011;23337;52.212;9.926;2023-05-07T02:47:00;21.97;;;18.47;;
37483;SDS011;23337;52.212;9.926;2023-05-07T02:49:26;21.27;;;17.07;;
37483;SDS011;23337;52.212;9.926;2023-05-07T02:51:52;20.83;;;17.67;;
37483;SDS011;23337;52.212;9.926;2023-05-07T02:54:18;22.97;;;18.17;;
37483;SDS011;23337;52.212;9.926;2023-05-07T02:56:44;26.97;;;20.20;;
37483;SDS011;23337;52.212;9.926;2023-05-07T02:59:10;30.63;;;22.50;;
37483;SDS011;23337;52.212;9.926;2023-05-07T03:01:36;29.43;;;24.10;;
37483;SDS011;23337;52.212;9.926;2023-05-07T03:04:02;28.97;;;23.13;;
37483;SDS011;23337;52.212;9.926;2023-05-07T03:06:27;32.73;;;25.17;;
37483;SDS011;23337;52.212;9.926;2023-05-07T03:08:53;34.60;;;25.20;;
37483;SDS011;23337;52.212;9.926;2023-05-07T03:11:19;31.13;;;23.30;;
37483;SDS011;23337;52.212;9.926;2023-05-07T03:13:45;28.13;;;22.37;;
37483;SDS011;23337;52.212;9.926;2023-05-07T03:16:13;31.07;;;24.13;;
37483;SDS011;23337;52.212;9.926;2023-05-07T03:18:40;29.40;;;23.00;;
37483;SDS011;23337;52.212;9.926;2023-05-07T03:21:06;30.50;;;23.37;;
37483;SDS011;23337;52.212;9.926;2023-05-07T03:23:31;26.77;;;21.63;;
37483;SDS011;23337;52.212;9.926;2023-05-07T03:25:57;30.13;;;22.40;;
37483;SDS011;23337;52.212;9.926;2023-05-07T03:28:23;32.77;;;24.40;;
37483;SDS011;23337;52.212;9.926;2023-05-07T03:30:49;29.90;;;22.27;;
37483;SDS011;23337;52.212;9.926;2023-05-07T03:33:15;25.47;;;20.60;;
37483;SDS011;23337;52.212;9.926;2023-05-07T03:35:41;27.17;;;21.10;;
37483;SDS011;23337;52.212;9.926;2023-05-07T03:38:07;27.27;;;21.53;;
37483;SDS011;23337;52.212;9.926;2023-05-07T03:40:33;26.27;;;20.93;;
37483;SDS011;23337;52.212;9.926;2023-05-07T03:42:59;29.17;;;22.63;;
37483;SDS011;23337;52.212;9.926;2023-05-07T03:45:25;28.47;;;21.53;;
37483;SDS011;23337;52.212;9.926;2023-05-07T03:47:51;28.47;;;20.30;;
37483;SDS011;23337;52.212;9.926;2023-05-07T03:50:17;25.40;;;20.47;;
37483;SDS011;23337;52.212;9.926;2023-05-07T03:52:43;24.93;;;21.30;;
37483;SDS011;23337;52.212;9.926;2023-05-07T03:55:10;24.97;;;19.30;;
37483;SDS011;23337;52.212;9.926;2023-05-07T03:57:36;31.63;;;22.47;;
37483;SDS011;23337;52.212;9.926;2023-05-07T04:00:02;25.00;;;20.40;;
37483;SDS011;23337;52.212;9.926;2023-05-07T04:02:29;27.60;;;21.23;;
37483;SDS011;23337;52.212;9.926;2023-05-07T04:04:55;30.70;;;21.93;;
37483;SDS011;23337;52.212;9.926;2023-05-07T04:07:21;26.53;;;20.60;;
37483;SDS011;23337;52.212;9.926;2023-05-07T04:09:47;30.40;;;20.97;;
37483;SDS011;23337;52.212;9.926;2023-05-07T04:12:13;28.77;;;20.43;;
37483;SDS011;23337;52.212;9.926;2023-05-07T04:14:39;24.50;;;20.80;;
37483;SDS011;23337;52.212;9.926;2023-05-07T04:17:05;24.07;;;19.03;;
37483;SDS011;23337;52.212;9.926;2023-05-07T04:19:33;27.93;;;20.90;;
37483;SDS011;23337;52.212;9.926;2023-05-07T04:21:58;25.13;;;18.60;;
37483;SDS011;23337;52.212;9.926;2023-05-07T04:24:25;25.47;;;19.53;;
37483;SDS011;23337;52.212;9.926;2023-05-07T04:26:51;28.90;;;20.50;;
37483;SDS011;23337;52.212;9.926;2023-05-07T04:29:17;23.33;;;19.67;;
37483;SDS011;23337;52.212;9.926;2023-05-07T04:31:44;22.93;;;18.60;;
37483;SDS011;23337;52.212;9.926;2023-05-07T04:34:10;22.57;;;18.20;;
37483;SDS011;23337;52.212;9.926;2023-05-07T04:36:37;20.80;;;16.33;;
37483;SDS011;23337;52.212;9.926;2023-05-07T04:39:03;21.10;;;17.07;;
37483;SDS011;23337;52.212;9.926;2023-05-07T04:41:30;21.37;;;16.03;;
37483;SDS011;23337;52.212;9.926;2023-05-07T04:43:56;20.67;;;16.90;;
37483;SDS011;23337;52.212;9.926;2023-05-07T04:46:23;22.20;;;17.40;;
37483;SDS011;23337;52.212;9.926;2023-05-07T04:48:49;22.17;;;17.67;;
37483;SDS011;23337;52.212;9.926;2023-05-07T04:51:15;20.43;;;17.40;;
37483;SDS011;23337;52.212;9.926;2023-05-07T04:53:41;22.03;;;17.87;;
37483;SDS011;23337;52.212;9.926;2023-05-07T04:56:08;23.33;;;16.57;;
37483;SDS011;23337;52.212;9.926;2023-05-07T04:58:34;20.43;;;16.43;;
37483;SDS011;23337;52.212;9.926;2023-05-07T05:01:00;18.87;;;15.53;;
37483;SDS011;23337;52.212;9.926;2023-05-07T05:03:26;18.30;;;15.57;;
37483;SDS011;23337;52.212;9.926;2023-05-07T05:05:52;20.27;;;15.87;;
37483;SDS011;23337;52.212;9.926;2023-05-07T05:08:18;19.47;;;15.40;;
37483;SDS011;23337;52.212;9.926;2023-05-07T05:10:44;15.97;;;13.90;;
37483;SDS011;23337;52.212;9.926;2023-05-07T05:13:10;16.90;;;13.63;;
37483;SDS011;23337;52.212;9.926;2023-05-07T05:15:38;16.83;;;13.47;;
37483;SDS011;23337;52.212;9.926;2023-05-07T05:18:03;16.33;;;13.40;;
37483;SDS011;23337;52.212;9.926;2023-05-07T05:20:30;15.27;;;13.30;;
37483;SDS011;23337;52.212;9.926;2023-05-07T05:22:56;16.93;;;12.83;;
37483;SDS011;23337;52.212;9.926;2023-05-07T05:25:22;16.07;;;12.57;;
37483;SDS011;23337;52.212;9.926;2023-05-07T05:27:48;16.93;;;13.83;;
37483;SDS011;23337;52.212;9.926;2023-05-07T05:30:14;14.53;;;12.40;;
37483;SDS011;23337;52.212;9.926;2023-05-07T05:32:40;14.87;;;12.10;;
37483;SDS011;23337;52.212;9.926;2023-05-07T05:35:06;13.37;;;11.97;;
37483;SDS011;23337;52.212;9.926;2023-05-07T05:37:32;14.47;;;11.70;;
37483;SDS011;23337;52.212;9.926;2023-05-07T05:39:58;13.13;;;11.37;;
37483;SDS011;23337;52.212;9.926;2023-05-07T05:42:23;14.03;;;11.50;;
37483;SDS011;23337;52.212;9.926;2023-05-07T05:44:49;11.83;;;10.47;;
37483;SDS011;23337;52.212;9.926;2023-05-07T05:47:15;12.20;;;10.43;;
37483;SDS011;23337;52.212;9.926;2023-05-07T05:49:41;11.37;;;10.17;;
37483;SDS011;23337;52.212;9.926;2023-05-07T05:52:08;12.23;;;10.90;;
37483;SDS011;23337;52.212;9.926;2023-05-07T05:54:34;10.83;;;9.67;;
37483;SDS011;23337;52.212;9.926;2023-05-07T05:57:00;11.73;;;10.13;;
37483;SDS011;23337;52.212;9.926;2023-05-07T05:59:28;11.83;;;9.60;;
37483;SDS011;23337;52.212;9.926;2023-05-07T06:01:56;10.30;;;8.90;;
37483;SDS011;23337;52.212;9.926;2023-05-07T06:04:22;10.70;;;9.17;;
37483;SDS011;23337;52.212;9.926;2023-05-07T06:06:48;10.90;;;9.80;;
37483;SDS011;23337;52.212;9.926;2023-05-07T06:09:14;10.43;;;9.27;;
37483;SDS011;23337;52.212;9.926;2023-05-07T06:11:40;11.07;;;9.70;;
37483;SDS011;23337;52.212;9.926;2023-05-07T06:14:06;10.53;;;9.37;;
37483;SDS011;23337;52.212;9.926;2023-05-07T06:16:32;10.27;;;8.20;;
37483;SDS011;23337;52.212;9.926;2023-05-07T06:18:58;9.87;;;8.87;;
37483;SDS011;23337;52.212;9.926;2023-05-07T06:21:24;9.30;;;8.40;;
37483;SDS011;23337;52.212;9.926;2023-05-07T06:23:50;9.30;;;8.40;;
37483;SDS011;23337;52.212;9.926;2023-05-07T06:26:17;9.17;;;8.33;;
37483;SDS011;23337;52.212;9.926;2023-05-07T06:28:43;9.27;;;8.20;;
37483;SDS011;23337;52.212;9.926;2023-05-07T06:31:12;8.83;;;7.93;;
37483;SDS011;23337;52.212;9.926;2023-05-07T06:33:38;10.30;;;8.17;;
37483;SDS011;23337;52.212;9.926;2023-05-07T06:36:05;9.27;;;8.37;;
37483;SDS011;23337;52.212;9.926;2023-05-07T06:38:31;12.60;;;7.77;;
37483;SDS011;23337;52.212;9.926;2023-05-07T06:40:57;8.80;;;7.90;;
37483;SDS011;23337;52.212;9.926;2023-05-07T06:43:23;9.00;;;8.10;;
37483;SDS011;23337;52.212;9.926;2023-05-07T06:45:48;8.37;;;7.10;;
37483;SDS011;23337;52.212;9.926;2023-05-07T06:48:14;8.83;;;7.63;;
37483;SDS011;23337;52.212;9.926;2023-05-07T06:50:41;9.63;;;7.50;;
37483;SDS011;23337;52.212;9.926;2023-05-07T06:53:07;10.73;;;8.50;;
37483;SDS011;23337;52.212;9.926;2023-05-07T06:55:33;10.13;;;9.03;;
37483;SDS011;23337;52.212;9.926;2023-05-07T06:57:59;9.70;;;8.67;;
37483;SDS011;23337;52.212;9.926;2023-05-07T07:00:26;8.83;;;7.93;;
37483;SDS011;23337;52.212;9.926;2023-05-07T07:02:53;9.77;;;8.03;;
37483;SDS011;23337;52.212;9.926;2023-05-07T07:05:19;9.23;;;8.33;;
37483;SDS011;23337;52.212;9.926;2023-05-07T07:07:45;10.80;;;9.27;;
37483;SDS011;23337;52.212;9.926;2023-05-07T07:10:17;10.00;;;9.00;;
37483;SDS011;23337;52.212;9.926;2023-05-07T07:12:43;11.00;;;9.90;;
37483;SDS011;23337;52.212;9.926;2023-05-07T07:15:09;12.10;;;10.50;;
37483;SDS011;23337;52.212;9.926;2023-05-07T07:17:35;10.40;;;9.30;;
37483;SDS011;23337;52.212;9.926;2023-05-07T07:20:02;10.73;;;9.40;;
37483;SDS011;23337;52.212;9.926;2023-05-07T07:22:28;10.33;;;9.30;;
37483;SDS011;23337;52.212;9.926;2023-05-07T07:24:54;11.23;;;10.13;;
37483;SDS011;23337;52.212;9.926;2023-05-07T07:27:20;11.30;;;9.70;;
37483;SDS011;23337;52.212;9.926;2023-05-07T07:29:46;12.60;;;10.03;;
37483;SDS011;23337;52.212;9.926;2023-05-07T07:32:12;12.20;;;11.00;;
37483;SDS011;23337;52.212;9.926;2023-05-07T07:34:38;10.93;;;9.90;;
37483;SDS011;23337;52.212;9.926;2023-05-07T07:37:04;13.33;;;10.37;;
37483;SDS011;23337;52.212;9.926;2023-05-07T07:39:34;9.40;;;8.50;;
37483;SDS011;23337;52.212;9.926;2023-05-07T07:42:02;9.33;;;8.43;;
37483;SDS011;23337;52.212;9.926;2023-05-07T07:44:28;10.07;;;9.07;;
37483;SDS011;23337;52.212;9.926;2023-05-07T07:46:54;9.93;;;9.03;;
37483;SDS011;23337;52.212;9.926;2023-05-07T07:49:20;11.90;;;10.70;;
37483;SDS011;23337;52.212;9.926;2023-05-07T07:51:46;10.97;;;9.90;;
37483;SDS011;23337;52.212;9.926;2023-05-07T07:54:12;13.97;;;12.63;;
37483;SDS011;23337;52.212;9.926;2023-05-07T07:56:38;12.47;;;11.37;;
37483;SDS011;23337;52.212;9.926;2023-05-07T07:59:04;12.77;;;11.47;;
37483;SDS011;23337;52.212;9.926;2023-05-07T08:01:30;13.57;;;12.27;;
37483;SDS011;23337;52.212;9.926;2023-05-07T08:03:56;14.70;;;13.20;;
37483;SDS011;23337;52.212;9.926;2023-05-07T08:06:25;13.27;;;11.97;;
37483;SDS011;23337;52.212;9.926;2023-05-07T08:08:51;13.13;;;11.90;;
37483;SDS011;23337;52.212;9.926;2023-05-07T08:11:17;12.40;;;11.30;;
37483;SDS011;23337;52.212;9.926;2023-05-07T08:13:43;13.10;;;11.90;;
37483;SDS011;23337;52.212;9.926;2023-05-07T08:16:10;12.90;;;11.47;;
37483;SDS011;23337;52.212;9.926;2023-05-07T08:18:36;11.77;;;10.60;;
37483;SDS011;23337;52.212;9.926;2023-05-07T08:21:02;12.70;;;11.40;;
37483;SDS011;23337;52.212;9.926;2023-05-07T08:23:28;11.43;;;10.33;;
37483;SDS011;23337;52.212;9.926;2023-05-07T08:25:54;11.00;;;9.90;;
37483;SDS011;23337;52.212;9.926;2023-05-07T08:28:20;11.50;;;10.30;;
37483;SDS011;23337;52.212;9.926;2023-05-07T08:30:46;10.47;;;9.47;;
37483;SDS011;23337;52.212;9.926;2023-05-07T08:33:12;10.87;;;9.77;;
37483;SDS011;23337;52.212;9.926;2023-05-07T08:35:38;10.80;;;9.70;;
37483;SDS011;23337;52.212;9.926;2023-05-07T08:38:04;10.73;;;9.67;;
37483;SDS011;23337;52.212;9.926;2023-05-07T08:40:30;12.13;;;10.93;;
37483;SDS011;23337;52.212;9.926;2023-05-07T08:42:58;11.87;;;10.63;;
37483;SDS011;23337;52.212;9.926;2023-05-07T08:45:25;11.77;;;10.67;;
37483;SDS011;23337;52.212;9.926;2023-05-07T08:47:55;12.13;;;10.97;;
37483;SDS011;23337;52.212;9.926;2023-05-07T08:50:23;11.60;;;10.40;;
37483;SDS011;23337;52.212;9.926;2023-05-07T08:52:49;11.47;;;10.33;;
37483;SDS011;23337;52.212;9.926;2023-05-07T08:55:15;12.63;;;10.70;;
37483;SDS011;23337;52.212;9.926;2023-05-07T08:57:42;10.30;;;9.37;;
37483;SDS011;23337;52.212;9.926;2023-05-07T09:00:08;15.03;;;11.07;;
37483;SDS011;23337;52.212;9.926;2023-05-07T09:02:35;11.03;;;9.97;;
37483;SDS011;23337;52.212;9.926;2023-05-07T09:05:01;11.60;;;10.50;;
37483;SDS011;23337;52.212;9.926;2023-05-07T09:07:27;11.30;;;10.17;;
37483;SDS011;23337;52.212;9.926;2023-05-07T09:09:53;11.87;;;10.70;;
37483;SDS011;23337;52.212;9.926;2023-05-07T09:12:20;11.13;;;9.93;;
37483;SDS011;23337;52.212;9.926;2023-05-07T09:14:46;11.60;;;10.50;;
37483;SDS011;23337;52.212;9.926;2023-05-07T09:17:13;12.33;;;11.13;;
37483;SDS011;23337;52.212;9.926;2023-05-07T09:19:39;10.80;;;9.70;;
37483;SDS011;23337;52.212;9.926;2023-05-07T09:22:05;12.40;;;11.30;;
37483;SDS011;23337;52.212;9.926;2023-05-07T09:24:34;12.20;;;11.00;;
37483;SDS011;23337;52.212;9.926;2023-05-07T09:27:02;12.23;;;10.77;;
37483;SDS011;23337;52.212;9.926;2023-05-07T09:29:28;11.60;;;10.50;;
37483;SDS011;23337;52.212;9.926;2023-05-07T09:31:59;12.50;;;11.23;;
37483;SDS011;23337;52.212;9.926;2023-05-07T09:34:25;13.80;;;12.40;;
37483;SDS011;23337;52.212;9.926;2023-05-07T09:36:51;12.63;;;11.33;;
37483;SDS011;23337;52.212;9.926;2023-05-07T09:39:17;13.30;;;11.97;;
37483;SDS011;23337;52.212;9.926;2023-05-07T09:41:44;14.03;;;12.73;;
37483;SDS011;23337;52.212;9.926;2023-05-07T09:44:10;14.03;;;12.67;;
37483;SDS011;23337;52.212;9.926;2023-05-07T09:46:36;13.97;;;12.63;;
37483;SDS011;23337;52.212;9.926;2023-05-07T09:49:02;14.50;;;13.10;;
37483;SDS011;23337;52.212;9.926;2023-05-07T09:51:43;13.87;;;12.53;;
37483;SDS011;23337;52.212;9.926;2023-05-07T09:54:11;15.10;;;13.70;;
37483;SDS011;23337;52.212;9.926;2023-05-07T09:56:37;14.37;;;12.90;;
37483;SDS011;23337;52.212;9.926;2023-05-07T09:59:03;14.47;;;13.03;;
37483;SDS011;23337;52.212;9.926;2023-05-07T10:01:31;14.67;;;13.27;;
37483;SDS011;23337;52.212;9.926;2023-05-07T10:03:57;14.43;;;13.10;;
37483;SDS011;23337;52.212;9.926;2023-05-07T10:06:24;14.87;;;13.53;;
37483;SDS011;23337;52.212;9.926;2023-05-07T10:08:53;14.73;;;13.30;;
37483;SDS011;23337;52.212;9.926;2023-05-07T10:11:19;13.17;;;11.97;;
37483;SDS011;23337;52.212;9.926;2023-05-07T10:13:46;13.87;;;12.57;;
37483;SDS011;23337;52.212;9.926;2023-05-07T10:16:12;12.97;;;11.77;;
37483;SDS011;23337;52.212;9.926;2023-05-07T10:18:38;13.47;;;12.17;;
37483;SDS011;23337;52.212;9.926;2023-05-07T10:21:07;14.37;;;12.23;;
37483;SDS011;23337;52.212;9.926;2023-05-07T10:23:33;13.20;;;12.00;;
37483;SDS011;23337;52.212;9.926;2023-05-07T10:26:01;12.53;;;11.23;;
37483;SDS011;23337;52.212;9.926;2023-05-07T10:28:28;12.27;;;11.17;;
37483;SDS011;23337;52.212;9.926;2023-05-07T10:31:04;13.33;;;11.97;;
37483;SDS011;23337;52.212;9.926;2023-05-07T10:33:33;13.07;;;11.77;;
37483;SDS011;23337;52.212;9.926;2023-05-07T10:36:00;12.40;;;11.30;;
37483;SDS011;23337;52.212;9.926;2023-05-07T10:38:29;12.60;;;11.47;;
37483;SDS011;23337;52.212;9.926;2023-05-07T10:40:55;12.70;;;11.50;;
37483;SDS011;23337;52.212;9.926;2023-05-07T10:43:21;12.37;;;11.17;;
37483;SDS011;23337;52.212;9.926;2023-05-07T10:46:09;13.23;;;11.87;;
37483;SDS011;23337;52.212;9.926;2023-05-07T10:48:49;12.27;;;11.27;;
37483;SDS011;23337;52.212;9.926;2023-05-07T10:51:21;11.97;;;10.87;;
37483;SDS011;23337;52.212;9.926;2023-05-07T10:53:47;13.30;;;12.10;;
37483;SDS011;23337;52.212;9.926;2023-05-07T10:58:42;12.50;;;10.67;;
37483;SDS011;23337;52.212;9.926;2023-05-07T11:01:08;12.43;;;11.23;;
37483;SDS011;23337;52.212;9.926;2023-05-07T11:03:36;12.90;;;11.07;;
37483;SDS011;23337;52.212;9.926;2023-05-07T11:06:22;11.00;;;9.90;;
37483;SDS011;23337;52.212;9.926;2023-05-07T11:08:57;11.37;;;10.23;;
37483;SDS011;23337;52.212;9.926;2023-05-07T11:14:08;11.23;;;10.23;;
37483;SDS011;23337;52.212;9.926;2023-05-07T11:16:34;10.87;;;9.87;;
37483;SDS011;23337;52.212;9.926;2023-05-07T11:19:01;10.73;;;9.73;;
37483;SDS011;23337;52.212;9.926;2023-05-07T11:23:59;11.47;;;10.37;;
37483;SDS011;23337;52.212;9.926;2023-05-07T11:26:25;11.60;;;10.43;;
37483;SDS011;23337;52.212;9.926;2023-05-07T11:28:52;10.43;;;9.43;;
37483;SDS011;23337;52.212;9.926;2023-05-07T11:31:23;11.43;;;10.23;;
37483;SDS011;23337;52.212;9.926;2023-05-07T11:33:51;11.03;;;9.93;;
37483;SDS011;23337;52.212;9.926;2023-05-07T11:36:17;10.47;;;9.57;;
37483;SDS011;23337;52.212;9.926;2023-05-07T11:38:44;11.33;;;10.33;;
37483;SDS011;23337;52.212;9.926;2023-05-07T11:41:10;10.83;;;9.83;;
37483;SDS011;23337;52.212;9.926;2023-05-07T11:43:36;10.87;;;9.97;;
37483;SDS011;23337;52.212;9.926;2023-05-07T11:46:08;10.90;;;9.90;;
37483;SDS011;23337;52.212;9.926;2023-05-07T11:48:35;11.63;;;10.53;;
37483;SDS011;23337;52.212;9.926;2023-05-07T11:51:01;9.87;;;8.90;;
37483;SDS011;23337;52.212;9.926;2023-05-07T11:53:36;9.67;;;8.77;;
37483;SDS011;23337;52.212;9.926;2023-05-07T11:56:08;9.77;;;8.90;;
37483;SDS011;23337;52.212;9.926;2023-05-07T11:58:35;9.80;;;8.90;;
37483;SDS011;23337;52.212;9.926;2023-05-07T12:01:01;9.57;;;8.63;;
37483;SDS011;23337;52.212;9.926;2023-05-07T12:03:27;9.43;;;8.60;;
37483;SDS011;23337;52.212;9.926;2023-05-07T12:05:53;9.23;;;8.37;;
37483;SDS011;23337;52.212;9.926;2023-05-07T12:08:19;8.97;;;7.83;;
37483;SDS011;23337;52.212;9.926;2023-05-07T12:10:47;8.20;;;7.50;;
37483;SDS011;23337;52.212;9.926;2023-05-07T12:13:19;8.90;;;8.10;;
37483;SDS011;23337;52.212;9.926;2023-05-07T12:15:45;8.50;;;7.80;;
37483;SDS011;23337;52.212;9.926;2023-05-07T12:18:11;9.07;;;8.27;;
37483;SDS011;23337;52.212;9.926;2023-05-07T12:20:38;8.20;;;7.40;;
37483;SDS011;23337;52.212;9.926;2023-05-07T12:23:04;7.67;;;6.83;;
37483;SDS011;23337;52.212;9.926;2023-05-07T12:25:37;8.13;;;7.43;;
37483;SDS011;23337;52.212;9.926;2023-05-07T12:28:03;7.60;;;6.87;;
37483;SDS011;23337;52.212;9.926;2023-05-07T12:30:36;8.10;;;7.33;;
37483;SDS011;23337;52.212;9.926;2023-05-07T12:33:02;7.67;;;7.07;;
37483;SDS011;23337;52.212;9.926;2023-05-07T12:35:28;8.13;;;7.33;;
37483;SDS011;23337;52.212;9.926;2023-05-07T12:37:55;8.20;;;7.50;;
37483;SDS011;23337;52.212;9.926;2023-05-07T12:40:21;8.87;;;8.00;;
37483;SDS011;23337;52.212;9.926;2023-05-07T12:42:47;7.87;;;7.17;;
37483;SDS011;23337;52.212;9.926;2023-05-07T12:45:19;8.40;;;7.50;;
37483;SDS011;23337;52.212;9.926;2023-05-07T12:47:46;8.57;;;7.77;;
37483;SDS011;23337;52.212;9.926;2023-05-07T12:50:12;8.27;;;7.57;;
37483;SDS011;23337;52.212;9.926;2023-05-07T12:52:39;10.47;;;9.47;;
37483;SDS011;23337;52.212;9.926;2023-05-07T12:55:05;10.80;;;9.90;;
37483;SDS011;23337;52.212;9.926;2023-05-07T12:57:37;11.70;;;10.60;;
37483;SDS011;23337;52.212;9.926;2023-05-07T13:00:04;11.97;;;10.87;;
37483;SDS011;23337;52.212;9.926;2023-05-07T13:02:33;11.37;;;10.47;;
37483;SDS011;23337;52.212;9.926;2023-05-07T13:05:00;12.30;;;11.03;;
37483;SDS011;23337;52.212;9.926;2023-05-07T13:07:30;13.43;;;12.13;;
37483;SDS011;23337;52.212;9.926;2023-05-07T13:09:56;12.43;;;11.43;;
37483;SDS011;23337;52.212;9.926;2023-05-07T13:12:21;12.27;;;11.17;;
37483;SDS011;23337;52.212;9.926;2023-05-07T13:14:47;11.67;;;10.67;;
37483;SDS011;23337;52.212;9.926;2023-05-07T13:17:13;12.60;;;11.60;;
37483;SDS011;23337;52.212;9.926;2023-05-07T13:19:39;13.17;;;11.97;;
37483;SDS011;23337;52.212;9.926;2023-05-07T13:22:05;12.93;;;11.87;;
37483;SDS011;23337;52.212;9.926;2023-05-07T13:24:31;11.20;;;10.10;;
37483;SDS011;23337;52.212;9.926;2023-05-07T13:26:57;11.43;;;10.30;;
37483;SDS011;23337;52.212;9.926;2023-05-07T13:29:23;11.17;;;10.23;;
37483;SDS011;23337;52.212;9.926;2023-05-07T13:31:53;11.93;;;10.83;;
37483;SDS011;23337;52.212;9.926;2023-05-07T13:34:20;12.40;;;11.20;;
37483;SDS011;23337;52.212;9.926;2023-05-07T13:36:46;10.90;;;10.00;;
37483;SDS011;23337;52.212;9.926;2023-05-07T13:39:12;11.67;;;10.67;;
37483;SDS011;23337;52.212;9.926;2023-05-07T13:41:38;11.60;;;10.70;;
37483;SDS011;23337;52.212;9.926;2023-05-07T13:44:03;10.60;;;9.70;;
37483;SDS011;23337;52.212;9.926;2023-05-07T13:46:29;12.40;;;11.20;;
37483;SDS011;23337;52.212;9.926;2023-05-07T13:48:56;11.93;;;10.67;;
37483;SDS011;23337;52.212;9.926;2023-05-07T13:51:22;10.67;;;9.87;;
37483;SDS011;23337;52.212;9.926;2023-05-07T13:53:48;11.13;;;10.33;;
37483;SDS011;23337;52.212;9.926;2023-05-07T13:56:14;10.83;;;10.03;;
37483;SDS011;23337;52.212;9.926;2023-05-07T13:58:40;10.33;;;9.43;;
37483;SDS011;23337;52.212;9.926;2023-05-07T14:01:06;9.57;;;8.77;;
37483;SDS011;23337;52.212;9.926;2023-05-07T14:03:32;10.33;;;9.53;;
37483;SDS011;23337;52.212;9.926;2023-05-07T14:05:59;10.53;;;8.57;;
37483;SDS011;23337;52.212;9.926;2023-05-07T14:08:26;8.70;;;8.00;;
37483;SDS011;23337;52.212;9.926;2023-05-07T14:10:52;8.53;;;7.83;;
37483;SDS011;23337;52.212;9.926;2023-05-07T14:13:18;8.23;;;7.53;;
37483;SDS011;23337;52.212;9.926;2023-05-07T14:15:44;8.70;;;7.93;;
37483;SDS011;23337;52.212;9.926;2023-05-07T14:18:12;9.03;;;8.23;;
37483;SDS011;23337;52.212;9.926;2023-05-07T14:20:38;9.70;;;8.90;;
37483;SDS011;23337;52.212;9.926;2023-05-07T14:23:04;9.90;;;9.10;;
37483;SDS011;23337;52.212;9.926;2023-05-07T14:25:30;9.97;;;9.00;;
37483;SDS011;23337;52.212;9.926;2023-05-07T14:27:56;10.30;;;9.43;;
37483;SDS011;23337;52.212;9.926;2023-05-07T14:30:22;10.37;;;9.43;;
37483;SDS011;23337;52.212;9.926;2023-05-07T14:32:49;10.37;;;9.47;;